sensor_id;sensor_type;location;lat;lon;timestamp;P1;P2;P0
75960;PMS7003;64644;48.914;2.254;2024-01-30T00:00:36;16.00;15.00;11.00
75960;PMS7003;64644;48.914;2.254;2024-01-30T00:03:01;17.75;15.75;11.50
75960;PMS7003;64644;48.914;2.254;2024-01-30T00:05:27;18.75;18.00;11.50
75960;PMS7003;64644;48.914;2.254;2024-01-30T00:07:52;18.00;17.25;12.00
75960;PMS7003;64644;48.914;2.254;2024-01-30T00:10:17;19.75;18.25;11.75
75960;PMS7003;64644;48.914;2.254;2024-01-30T00:12:43;17.50;17.50;13.25
75960;PMS7003;64644;48.914;2.254;2024-01-30T00:15:08;17.25;17.00;11.00
75960;PMS7003;64644;48.914;2.254;2024-01-30T00:17:35;17.75;15.75;11.75
75960;PMS7003;64644;48.914;2.254;2024-01-30T00:20:01;19.50;17.50;11.25
75960;PMS7003;64644;48.914;2.254;2024-01-30T00:22:30;17.50;14.75;11.00
75960;PMS7003;64644;48.914;2.254;2024-01-30T00:24:55;20.50;17.00;14.25
75960;PMS7003;64644;48.914;2.254;2024-01-30T00:27:21;17.25;14.75;9.25
75960;PMS7003;64644;48.914;2.254;2024-01-30T00:29:46;17.00;14.75;11.00
75960;PMS7003;64644;48.914;2.254;2024-01-30T00:32:11;15.50;15.00;11.00
75960;PMS7003;64644;48.914;2.254;2024-01-30T00:34:37;20.50;15.75;11.25
75960;PMS7003;64644;48.914;2.254;2024-01-30T00:37:02;19.00;16.50;10.75
75960;PMS7003;64644;48.914;2.254;2024-01-30T00:39:27;19.00;19.00;13.00
75960;PMS7003;64644;48.914;2.254;2024-01-30T00:41:53;15.50;15.50;10.75
75960;PMS7003;64644;48.914;2.254;2024-01-30T00:44:18;17.00;15.75;10.75
75960;PMS7003;64644;48.914;2.254;2024-01-30T00:46:43;18.75;17.00;14.00
75960;PMS7003;64644;48.914;2.254;2024-01-30T00:49:10;17.25;17.25;12.25
75960;PMS7003;64644;48.914;2.254;2024-01-30T00:51:35;18.25;18.00;13.00
75960;PMS7003;64644;48.914;2.254;2024-01-30T00:54:01;16.00;14.50;11.00
75960;PMS7003;64644;48.914;2.254;2024-01-30T00:56:27;17.25;14.50;11.00
75960;PMS7003;64644;48.914;2.254;2024-01-30T00:58:53;22.50;16.50;13.75
75960;PMS7003;64644;48.914;2.254;2024-01-30T01:01:18;19.50;17.75;11.50
75960;PMS7003;64644;48.914;2.254;2024-01-30T01:03:44;19.25;15.75;11.25
75960;PMS7003;64644;48.914;2.254;2024-01-30T01:06:09;21.00;19.75;14.00
75960;PMS7003;64644;48.914;2.254;2024-01-30T01:08:35;18.50;17.50;13.25
75960;PMS7003;64644;48.914;2.254;2024-01-30T01:11:01;20.25;20.25;15.00
75960;PMS7003;64644;48.914;2.254;2024-01-30T01:13:26;18.25;17.50;12.25
75960;PMS7003;64644;48.914;2.254;2024-01-30T01:15:51;18.50;16.25;11.00
75960;PMS7003;64644;48.914;2.254;2024-01-30T01:18:17;20.75;17.00;11.75
75960;PMS7003;64644;48.914;2.254;2024-01-30T01:20:42;21.50;19.00;10.00
75960;PMS7003;64644;48.914;2.254;2024-01-30T01:23:07;18.50;15.50;12.00
75960;PMS7003;64644;48.914;2.254;2024-01-30T01:25:33;20.00;20.00;14.00
75960;PMS7003;64644;48.914;2.254;2024-01-30T01:27:58;20.25;18.00;14.00
75960;PMS7003;64644;48.914;2.254;2024-01-30T01:30:26;22.00;22.00;15.00
75960;PMS7003;64644;48.914;2.254;2024-01-30T01:32:51;18.00;14.25;10.25
75960;PMS7003;64644;48.914;2.254;2024-01-30T01:35:23;21.00;18.50;14.25
75960;PMS7003;64644;48.914;2.254;2024-01-30T01:37:50;23.00;21.75;13.75
75960;PMS7003;64644;48.914;2.254;2024-01-30T01:40:20;17.75;16.50;11.00
75960;PMS7003;64644;48.914;2.254;2024-01-30T01:42:47;18.00;18.00;12.00
75960;PMS7003;64644;48.914;2.254;2024-01-30T01:45:13;20.75;16.00;13.00
75960;PMS7003;64644;48.914;2.254;2024-01-30T01:47:38;19.25;15.25;11.00
75960;PMS7003;64644;48.914;2.254;2024-01-30T01:50:04;13.75;13.75;10.25
75960;PMS7003;64644;48.914;2.254;2024-01-30T01:52:29;18.50;17.75;10.25
75960;PMS7003;64644;48.914;2.254;2024-01-30T01:54:55;15.75;14.75;10.00
75960;PMS7003;64644;48.914;2.254;2024-01-30T01:57:20;18.50;15.50;11.50
75960;PMS7003;64644;48.914;2.254;2024-01-30T01:59:46;14.25;14.25;9.25
75960;PMS7003;64644;48.914;2.254;2024-01-30T02:02:12;20.50;15.25;10.25
75960;PMS7003;64644;48.914;2.254;2024-01-30T02:04:40;14.00;12.75;9.00
75960;PMS7003;64644;48.914;2.254;2024-01-30T02:07:06;16.00;13.50;7.50
75960;PMS7003;64644;48.914;2.254;2024-01-30T02:09:32;14.50;14.00;9.00
75960;PMS7003;64644;48.914;2.254;2024-01-30T02:11:57;11.25;10.50;7.50
75960;PMS7003;64644;48.914;2.254;2024-01-30T02:14:22;14.25;12.25;9.00
75960;PMS7003;64644;48.914;2.254;2024-01-30T02:16:48;10.75;10.75;7.00
75960;PMS7003;64644;48.914;2.254;2024-01-30T02:19:14;11.75;10.75;9.75
75960;PMS7003;64644;48.914;2.254;2024-01-30T02:21:40;11.00;11.00;8.25
75960;PMS7003;64644;48.914;2.254;2024-01-30T02:24:05;11.50;11.00;7.00
75960;PMS7003;64644;48.914;2.254;2024-01-30T02:26:31;14.25;13.75;9.75
75960;PMS7003;64644;48.914;2.254;2024-01-30T02:28:56;16.00;11.50;9.00
75960;PMS7003;64644;48.914;2.254;2024-01-30T02:31:21;13.75;10.75;8.50
75960;PMS7003;64644;48.914;2.254;2024-01-30T02:33:47;13.00;11.00;9.00
75960;PMS7003;64644;48.914;2.254;2024-01-30T02:36:12;10.25;9.50;8.25
75960;PMS7003;64644;48.914;2.254;2024-01-30T02:38:37;12.50;11.75;10.50
75960;PMS7003;64644;48.914;2.254;2024-01-30T02:41:03;11.00;11.00;6.75
75960;PMS7003;64644;48.914;2.254;2024-01-30T02:43:28;14.50;12.75;7.00
75960;PMS7003;64644;48.914;2.254;2024-01-30T02:45:53;10.25;10.25;7.00
75960;PMS7003;64644;48.914;2.254;2024-01-30T02:48:19;11.25;11.00;9.75
75960;PMS7003;64644;48.914;2.254;2024-01-30T02:50:44;11.00;11.00;9.00
75960;PMS7003;64644;48.914;2.254;2024-01-30T02:53:10;13.50;11.00;10.00
75960;PMS7003;64644;48.914;2.254;2024-01-30T02:55:36;12.50;11.00;7.25
75960;PMS7003;64644;48.914;2.254;2024-01-30T02:58:01;6.00;6.00;4.50
75960;PMS7003;64644;48.914;2.254;2024-01-30T03:00:26;8.00;7.25;5.50
75960;PMS7003;64644;48.914;2.254;2024-01-30T03:02:53;6.25;6.25;5.75
75960;PMS7003;64644;48.914;2.254;2024-01-30T03:05:18;12.50;11.00;6.00
75960;PMS7003;64644;48.914;2.254;2024-01-30T03:07:44;9.50;9.25;6.50
75960;PMS7003;64644;48.914;2.254;2024-01-30T03:10:09;7.25;6.50;6.00
75960;PMS7003;64644;48.914;2.254;2024-01-30T03:12:34;8.00;6.50;5.50
75960;PMS7003;64644;48.914;2.254;2024-01-30T03:15:00;9.50;8.50;5.75
75960;PMS7003;64644;48.914;2.254;2024-01-30T03:17:25;7.50;7.50;6.00
75960;PMS7003;64644;48.914;2.254;2024-01-30T03:19:51;9.75;9.25;6.00
75960;PMS7003;64644;48.914;2.254;2024-01-30T03:22:16;10.25;8.50;6.50
75960;PMS7003;64644;48.914;2.254;2024-01-30T03:24:42;10.75;9.50;7.00
75960;PMS7003;64644;48.914;2.254;2024-01-30T03:27:07;8.50;8.50;5.25
75960;PMS7003;64644;48.914;2.254;2024-01-30T03:29:33;9.00;6.00;5.00
75960;PMS7003;64644;48.914;2.254;2024-01-30T03:31:58;9.00;6.25;5.25
75960;PMS7003;64644;48.914;2.254;2024-01-30T03:34:24;9.25;9.25;7.00
75960;PMS7003;64644;48.914;2.254;2024-01-30T03:36:49;10.50;9.00;6.00
75960;PMS7003;64644;48.914;2.254;2024-01-30T03:39:14;9.50;7.50;6.00
75960;PMS7003;64644;48.914;2.254;2024-01-30T03:41:41;8.25;7.00;5.25
75960;PMS7003;64644;48.914;2.254;2024-01-30T03:44:08;12.50;10.75;9.00
75960;PMS7003;64644;48.914;2.254;2024-01-30T03:46:33;7.00;7.00;5.00
75960;PMS7003;64644;48.914;2.254;2024-01-30T03:48:59;14.00;10.50;7.00
75960;PMS7003;64644;48.914;2.254;2024-01-30T03:51:24;9.00;7.00;5.25
75960;PMS7003;64644;48.914;2.254;2024-01-30T03:53:49;6.50;6.00;4.00
75960;PMS7003;64644;48.914;2.254;2024-01-30T03:56:15;9.25;9.25;6.25
75960;PMS7003;64644;48.914;2.254;2024-01-30T03:58:40;10.50;8.50;6.00
75960;PMS7003;64644;48.914;2.254;2024-01-30T04:01:06;10.50;9.50;6.00
75960;PMS7003;64644;48.914;2.254;2024-01-30T04:03:32;10.25;8.75;6.00
75960;PMS7003;64644;48.914;2.254;2024-01-30T04:05:57;7.25;7.25;5.50
75960;PMS7003;64644;48.914;2.254;2024-01-30T04:08:22;8.50;8.50;6.00
75960;PMS7003;64644;48.914;2.254;2024-01-30T04:10:48;11.00;9.75;6.00
75960;PMS7003;64644;48.914;2.254;2024-01-30T04:13:13;14.00;10.25;6.75
75960;PMS7003;64644;48.914;2.254;2024-01-30T04:15:39;8.00;8.00;6.75
75960;PMS7003;64644;48.914;2.254;2024-01-30T04:18:04;11.00;11.00;7.50
75960;PMS7003;64644;48.914;2.254;2024-01-30T04:20:30;5.25;5.25;2.25
75960;PMS7003;64644;48.914;2.254;2024-01-30T04:22:55;8.50;8.50;7.00
75960;PMS7003;64644;48.914;2.254;2024-01-30T04:25:21;9.00;9.00;7.00
75960;PMS7003;64644;48.914;2.254;2024-01-30T04:27:46;8.50;7.00;5.75
75960;PMS7003;64644;48.914;2.254;2024-01-30T04:30:12;7.50;6.75;6.00
75960;PMS7003;64644;48.914;2.254;2024-01-30T04:32:37;12.00;10.00;7.00
75960;PMS7003;64644;48.914;2.254;2024-01-30T04:35:03;7.50;7.50;6.50
75960;PMS7003;64644;48.914;2.254;2024-01-30T04:37:28;9.75;9.00;5.25
75960;PMS7003;64644;48.914;2.254;2024-01-30T04:39:54;9.75;9.00;6.00
75960;PMS7003;64644;48.914;2.254;2024-01-30T04:42:19;8.50;8.50;5.25
75960;PMS7003;64644;48.914;2.254;2024-01-30T04:44:45;10.00;10.00;6.75
75960;PMS7003;64644;48.914;2.254;2024-01-30T04:47:10;11.75;10.00;7.00
75960;PMS7003;64644;48.914;2.254;2024-01-30T04:49:38;12.50;10.25;6.00
75960;PMS7003;64644;48.914;2.254;2024-01-30T04:52:04;8.50;8.00;5.75
75960;PMS7003;64644;48.914;2.254;2024-01-30T04:54:29;10.50;10.25;6.75
75960;PMS7003;64644;48.914;2.254;2024-01-30T04:56:55;9.50;9.50;6.00
75960;PMS7003;64644;48.914;2.254;2024-01-30T04:59:20;6.75;5.75;5.00
75960;PMS7003;64644;48.914;2.254;2024-01-30T05:01:45;10.25;10.25;6.00
75960;PMS7003;64644;48.914;2.254;2024-01-30T05:04:11;7.00;7.00;6.50
75960;PMS7003;64644;48.914;2.254;2024-01-30T05:06:36;8.00;8.00;5.25
75960;PMS7003;64644;48.914;2.254;2024-01-30T05:09:02;9.25;8.00;6.00
75960;PMS7003;64644;48.914;2.254;2024-01-30T05:11:29;9.00;7.00;5.50
75960;PMS7003;64644;48.914;2.254;2024-01-30T05:13:55;8.50;7.00;5.00
75960;PMS7003;64644;48.914;2.254;2024-01-30T05:16:20;9.00;8.00;5.50
75960;PMS7003;64644;48.914;2.254;2024-01-30T05:18:45;9.25;9.25;6.00
75960;PMS7003;64644;48.914;2.254;2024-01-30T05:21:11;9.50;9.50;6.00
75960;PMS7003;64644;48.914;2.254;2024-01-30T05:23:36;10.25;7.50;5.75
75960;PMS7003;64644;48.914;2.254;2024-01-30T05:26:01;13.25;10.75;7.50
75960;PMS7003;64644;48.914;2.254;2024-01-30T05:28:28;6.00;5.00;3.00
75960;PMS7003;64644;48.914;2.254;2024-01-30T05:30:54;12.00;10.00;6.00
75960;PMS7003;64644;48.914;2.254;2024-01-30T05:33:20;13.75;12.25;7.00
75960;PMS7003;64644;48.914;2.254;2024-01-30T05:35:45;12.00;11.50;9.00
75960;PMS7003;64644;48.914;2.254;2024-01-30T05:38:11;12.75;11.50;7.50
75960;PMS7003;64644;48.914;2.254;2024-01-30T05:40:37;12.75;11.25;7.50
75960;PMS7003;64644;48.914;2.254;2024-01-30T05:43:02;11.50;11.50;8.50
75960;PMS7003;64644;48.914;2.254;2024-01-30T05:45:28;10.00;10.00;7.00
75960;PMS7003;64644;48.914;2.254;2024-01-30T05:47:53;9.00;9.00;7.00
75960;PMS7003;64644;48.914;2.254;2024-01-30T05:50:19;13.00;13.00;9.00
75960;PMS7003;64644;48.914;2.254;2024-01-30T05:52:45;15.25;13.75;9.00
75960;PMS7003;64644;48.914;2.254;2024-01-30T05:55:11;13.00;11.25;8.50
75960;PMS7003;64644;48.914;2.254;2024-01-30T05:57:37;14.25;13.00;7.50
75960;PMS7003;64644;48.914;2.254;2024-01-30T06:00:03;10.50;10.50;7.00
75960;PMS7003;64644;48.914;2.254;2024-01-30T06:02:30;13.50;13.25;8.00
75960;PMS7003;64644;48.914;2.254;2024-01-30T06:04:56;13.25;11.75;7.00
75960;PMS7003;64644;48.914;2.254;2024-01-30T06:07:21;12.00;10.75;6.50
75960;PMS7003;64644;48.914;2.254;2024-01-30T06:09:47;9.25;9.25;7.00
75960;PMS7003;64644;48.914;2.254;2024-01-30T06:12:12;11.75;10.50;7.75
75960;PMS7003;64644;48.914;2.254;2024-01-30T06:14:37;11.50;10.75;9.00
75960;PMS7003;64644;48.914;2.254;2024-01-30T06:17:03;14.50;13.25;8.75
75960;PMS7003;64644;48.914;2.254;2024-01-30T06:19:29;15.75;11.00;7.25
75960;PMS7003;64644;48.914;2.254;2024-01-30T06:21:55;11.50;11.50;8.25
75960;PMS7003;64644;48.914;2.254;2024-01-30T06:24:20;12.50;12.00;9.25
75960;PMS7003;64644;48.914;2.254;2024-01-30T06:26:45;12.67;10.00;6.67
75960;PMS7003;64644;48.914;2.254;2024-01-30T06:29:11;14.75;10.50;7.00
75960;PMS7003;64644;48.914;2.254;2024-01-30T06:31:40;15.00;12.00;8.00
75960;PMS7003;64644;48.914;2.254;2024-01-30T06:34:06;14.75;12.25;8.25
75960;PMS7003;64644;48.914;2.254;2024-01-30T06:36:32;11.25;11.00;7.50
75960;PMS7003;64644;48.914;2.254;2024-01-30T06:38:57;13.50;11.00;8.00
75960;PMS7003;64644;48.914;2.254;2024-01-30T06:41:22;20.33;17.33;11.00
75960;PMS7003;64644;48.914;2.254;2024-01-30T06:43:48;11.25;10.50;6.25
75960;PMS7003;64644;48.914;2.254;2024-01-30T06:46:13;11.50;11.50;9.00
75960;PMS7003;64644;48.914;2.254;2024-01-30T06:48:39;13.75;11.00;7.00
75960;PMS7003;64644;48.914;2.254;2024-01-30T06:51:05;10.25;8.50;5.25
75960;PMS7003;64644;48.914;2.254;2024-01-30T06:53:30;15.25;13.25;9.25
75960;PMS7003;64644;48.914;2.254;2024-01-30T06:55:56;14.25;12.00;8.50
75960;PMS7003;64644;48.914;2.254;2024-01-30T06:58:21;12.00;10.75;6.00
75960;PMS7003;64644;48.914;2.254;2024-01-30T07:00:46;16.00;12.00;7.00
75960;PMS7003;64644;48.914;2.254;2024-01-30T07:03:12;16.00;14.50;8.25
75960;PMS7003;64644;48.914;2.254;2024-01-30T07:05:37;15.00;11.25;8.25
75960;PMS7003;64644;48.914;2.254;2024-01-30T07:08:02;17.25;14.25;8.50
75960;PMS7003;64644;48.914;2.254;2024-01-30T07:10:28;15.00;12.00;10.00
75960;PMS7003;64644;48.914;2.254;2024-01-30T07:12:53;16.00;14.67;11.00
75960;PMS7003;64644;48.914;2.254;2024-01-30T07:15:19;15.25;11.00;8.00
75960;PMS7003;64644;48.914;2.254;2024-01-30T07:17:45;10.50;10.50;7.50
75960;PMS7003;64644;48.914;2.254;2024-01-30T07:20:11;14.75;13.50;7.25
75960;PMS7003;64644;48.914;2.254;2024-01-30T07:22:36;12.25;12.25;9.00
75960;PMS7003;64644;48.914;2.254;2024-01-30T07:25:02;14.25;13.50;10.00
75960;PMS7003;64644;48.914;2.254;2024-01-30T07:27:27;12.50;11.75;9.75
75960;PMS7003;64644;48.914;2.254;2024-01-30T07:29:52;13.50;11.75;8.25
75960;PMS7003;64644;48.914;2.254;2024-01-30T07:32:18;9.00;8.50;7.00
75960;PMS7003;64644;48.914;2.254;2024-01-30T07:34:43;16.00;14.00;10.00
75960;PMS7003;64644;48.914;2.254;2024-01-30T07:37:09;15.00;12.75;10.00
75960;PMS7003;64644;48.914;2.254;2024-01-30T07:39:35;13.00;12.00;7.75
75960;PMS7003;64644;48.914;2.254;2024-01-30T07:42:01;17.50;12.75;11.00
75960;PMS7003;64644;48.914;2.254;2024-01-30T07:44:26;12.75;12.75;10.00
75960;PMS7003;64644;48.914;2.254;2024-01-30T07:46:51;17.00;15.00;10.67
75960;PMS7003;64644;48.914;2.254;2024-01-30T07:49:17;13.00;10.75;7.75
75960;PMS7003;64644;48.914;2.254;2024-01-30T07:51:42;14.00;14.00;8.75
75960;PMS7003;64644;48.914;2.254;2024-01-30T07:54:08;14.25;13.25;8.25
75960;PMS7003;64644;48.914;2.254;2024-01-30T07:56:34;16.00;16.00;11.00
75960;PMS7003;64644;48.914;2.254;2024-01-30T07:58:59;17.00;16.00;7.25
75960;PMS7003;64644;48.914;2.254;2024-01-30T08:01:24;11.75;11.25;9.50
75960;PMS7003;64644;48.914;2.254;2024-01-30T08:03:50;16.33;15.33;11.00
75960;PMS7003;64644;48.914;2.254;2024-01-30T08:06:15;13.75;11.50;8.00
75960;PMS7003;64644;48.914;2.254;2024-01-30T08:08:40;14.00;14.00;9.50
75960;PMS7003;64644;48.914;2.254;2024-01-30T08:11:05;20.50;15.00;9.75
75960;PMS7003;64644;48.914;2.254;2024-01-30T08:13:32;14.25;12.00;7.25
75960;PMS7003;64644;48.914;2.254;2024-01-30T08:15:57;14.00;12.00;9.00
75960;PMS7003;64644;48.914;2.254;2024-01-30T08:18:23;14.00;14.00;10.25
75960;PMS7003;64644;48.914;2.254;2024-01-30T08:20:48;16.00;15.50;10.50
75960;PMS7003;64644;48.914;2.254;2024-01-30T08:23:14;14.25;13.25;10.00
75960;PMS7003;64644;48.914;2.254;2024-01-30T08:25:39;20.25;15.50;11.00
75960;PMS7003;64644;48.914;2.254;2024-01-30T08:28:04;15.67;12.67;10.33
75960;PMS7003;64644;48.914;2.254;2024-01-30T08:30:30;12.25;11.50;8.00
75960;PMS7003;64644;48.914;2.254;2024-01-30T08:32:55;14.25;13.25;8.00
75960;PMS7003;64644;48.914;2.254;2024-01-30T08:35:20;12.00;10.50;7.00
75960;PMS7003;64644;48.914;2.254;2024-01-30T08:37:46;10.75;10.75;8.00
75960;PMS7003;64644;48.914;2.254;2024-01-30T08:40:11;15.50;12.00;10.00
75960;PMS7003;64644;48.914;2.254;2024-01-30T08:42:36;12.50;12.50;9.50
75960;PMS7003;64644;48.914;2.254;2024-01-30T08:45:02;13.00;13.00;9.50
75960;PMS7003;64644;48.914;2.254;2024-01-30T08:47:29;15.50;15.50;11.00
75960;PMS7003;64644;48.914;2.254;2024-01-30T08:49:55;14.00;11.25;8.00
75960;PMS7003;64644;48.914;2.254;2024-01-30T08:52:20;11.75;10.50;7.00
75960;PMS7003;64644;48.914;2.254;2024-01-30T08:54:45;15.67;15.00;11.00
75960;PMS7003;64644;48.914;2.254;2024-01-30T08:57:10;16.50;15.50;10.50
75960;PMS7003;64644;48.914;2.254;2024-01-30T08:59:36;13.50;11.25;7.25
75960;PMS7003;64644;48.914;2.254;2024-01-30T09:02:01;14.25;14.25;9.75
75960;PMS7003;64644;48.914;2.254;2024-01-30T09:04:27;15.25;14.25;9.75
75960;PMS7003;64644;48.914;2.254;2024-01-30T09:06:52;19.00;16.75;10.25
75960;PMS7003;64644;48.914;2.254;2024-01-30T09:09:18;13.50;13.50;9.75
75960;PMS7003;64644;48.914;2.254;2024-01-30T09:11:44;11.25;11.00;8.25
75960;PMS7003;64644;48.914;2.254;2024-01-30T09:14:09;15.25;12.00;10.00
75960;PMS7003;64644;48.914;2.254;2024-01-30T09:16:34;14.25;14.25;10.00
75960;PMS7003;64644;48.914;2.254;2024-01-30T09:19:00;16.00;12.25;8.00
75960;PMS7003;64644;48.914;2.254;2024-01-30T09:21:25;15.75;13.25;10.75
75960;PMS7003;64644;48.914;2.254;2024-01-30T09:23:51;14.50;13.00;9.50
75960;PMS7003;64644;48.914;2.254;2024-01-30T09:26:19;13.50;13.25;8.00
75960;PMS7003;64644;48.914;2.254;2024-01-30T09:28:44;15.75;13.75;11.25
75960;PMS7003;64644;48.914;2.254;2024-01-30T09:31:10;17.50;16.75;10.75
75960;PMS7003;64644;48.914;2.254;2024-01-30T09:33:35;12.25;11.75;8.00
75960;PMS7003;64644;48.914;2.254;2024-01-30T09:36:01;16.25;14.25;10.00
75960;PMS7003;64644;48.914;2.254;2024-01-30T09:38:26;14.00;10.75;7.50
75960;PMS7003;64644;48.914;2.254;2024-01-30T09:40:53;12.50;11.75;7.50
75960;PMS7003;64644;48.914;2.254;2024-01-30T09:43:22;15.00;13.00;9.50
75960;PMS7003;64644;48.914;2.254;2024-01-30T09:45:49;15.25;13.75;10.00
75960;PMS7003;64644;48.914;2.254;2024-01-30T09:48:16;8.00;8.00;7.00
75960;PMS7003;64644;48.914;2.254;2024-01-30T09:50:41;11.00;10.00;7.00
75960;PMS7003;64644;48.914;2.254;2024-01-30T09:53:07;11.50;11.00;6.75
75960;PMS7003;64644;48.914;2.254;2024-01-30T09:55:34;11.25;10.50;8.25
75960;PMS7003;64644;48.914;2.254;2024-01-30T09:58:01;13.50;9.50;7.50
75960;PMS7003;64644;48.914;2.254;2024-01-30T10:00:26;8.50;8.00;6.00
75960;PMS7003;64644;48.914;2.254;2024-01-30T10:02:52;11.00;10.25;6.00
75960;PMS7003;64644;48.914;2.254;2024-01-30T10:05:18;13.00;10.00;7.25
75960;PMS7003;64644;48.914;2.254;2024-01-30T10:07:54;8.00;8.00;6.00
75960;PMS7003;64644;48.914;2.254;2024-01-30T10:10:22;12.00;9.75;7.00
75960;PMS7003;64644;48.914;2.254;2024-01-30T10:12:48;8.25;8.25;6.75
75960;PMS7003;64644;48.914;2.254;2024-01-30T10:15:14;8.00;7.00;6.00
75960;PMS7003;64644;48.914;2.254;2024-01-30T10:17:39;10.25;10.25;6.75
75960;PMS7003;64644;48.914;2.254;2024-01-30T10:20:05;12.50;7.75;5.25
75960;PMS7003;64644;48.914;2.254;2024-01-30T10:22:30;8.25;7.00;5.75
75960;PMS7003;64644;48.914;2.254;2024-01-30T10:24:56;7.50;6.50;5.25
75960;PMS7003;64644;48.914;2.254;2024-01-30T10:27:27;7.25;5.25;3.00
75960;PMS7003;64644;48.914;2.254;2024-01-30T10:29:54;7.50;7.25;4.50
75960;PMS7003;64644;48.914;2.254;2024-01-30T10:32:20;8.00;6.00;3.00
75960;PMS7003;64644;48.914;2.254;2024-01-30T10:34:46;8.00;7.25;6.00
75960;PMS7003;64644;48.914;2.254;2024-01-30T10:37:12;5.75;5.50;3.00
75960;PMS7003;64644;48.914;2.254;2024-01-30T10:39:40;10.75;9.75;6.00
75960;PMS7003;64644;48.914;2.254;2024-01-30T10:42:06;10.00;7.00;4.25
75960;PMS7003;64644;48.914;2.254;2024-01-30T10:47:18;7.50;7.25;4.75
75960;PMS7003;64644;48.914;2.254;2024-01-30T10:49:49;8.50;6.75;6.00
75960;PMS7003;64644;48.914;2.254;2024-01-30T10:52:17;6.50;6.25;5.75
75960;PMS7003;64644;48.914;2.254;2024-01-30T10:54:44;7.00;7.00;5.00
75960;PMS7003;64644;48.914;2.254;2024-01-30T10:57:09;7.25;5.75;5.00
75960;PMS7003;64644;48.914;2.254;2024-01-30T10:59:37;6.75;6.00;4.25
75960;PMS7003;64644;48.914;2.254;2024-01-30T11:02:02;11.25;8.00;3.75
75960;PMS7003;64644;48.914;2.254;2024-01-30T11:04:35;10.75;7.75;5.75
75960;PMS7003;64644;48.914;2.254;2024-01-30T11:07:01;6.00;6.00;5.00
75960;PMS7003;64644;48.914;2.254;2024-01-30T11:09:29;11.00;10.00;5.75
75960;PMS7003;64644;48.914;2.254;2024-01-30T11:11:58;7.00;6.00;3.00
75960;PMS7003;64644;48.914;2.254;2024-01-30T11:14:25;8.00;7.00;3.00
75960;PMS7003;64644;48.914;2.254;2024-01-30T11:16:51;9.50;7.00;5.75
75960;PMS7003;64644;48.914;2.254;2024-01-30T11:19:22;8.00;7.00;5.00
75960;PMS7003;64644;48.914;2.254;2024-01-30T11:21:50;9.00;6.00;3.00
75960;PMS7003;64644;48.914;2.254;2024-01-30T11:24:19;6.50;6.00;5.00
75960;PMS7003;64644;48.914;2.254;2024-01-30T11:26:45;7.25;7.25;5.00
75960;PMS7003;64644;48.914;2.254;2024-01-30T11:29:13;9.00;6.75;4.75
75960;PMS7003;64644;48.914;2.254;2024-01-30T11:31:38;7.00;5.00;3.00
75960;PMS7003;64644;48.914;2.254;2024-01-30T11:34:03;5.25;3.00;2.00
75960;PMS7003;64644;48.914;2.254;2024-01-30T11:36:30;7.00;6.00;5.00
75960;PMS7003;64644;48.914;2.254;2024-01-30T11:38:59;6.00;6.00;1.25
75960;PMS7003;64644;48.914;2.254;2024-01-30T11:41:25;5.25;3.25;2.25
75960;PMS7003;64644;48.914;2.254;2024-01-30T11:43:51;6.25;4.50;3.00
75960;PMS7003;64644;48.914;2.254;2024-01-30T11:46:17;6.00;6.00;4.25
75960;PMS7003;64644;48.914;2.254;2024-01-30T11:48:43;4.50;3.75;3.75
75960;PMS7003;64644;48.914;2.254;2024-01-30T11:51:08;5.00;4.75;3.00
75960;PMS7003;64644;48.914;2.254;2024-01-30T11:53:34;3.25;3.00;2.75
75960;PMS7003;64644;48.914;2.254;2024-01-30T11:55:59;6.50;6.50;4.25
75960;PMS7003;64644;48.914;2.254;2024-01-30T11:58:25;10.00;7.67;5.00
75960;PMS7003;64644;48.914;2.254;2024-01-30T12:00:57;4.50;4.50;2.00
75960;PMS7003;64644;48.914;2.254;2024-01-30T12:03:23;3.75;3.75;2.25
75960;PMS7003;64644;48.914;2.254;2024-01-30T12:05:54;3.00;3.00;2.00
75960;PMS7003;64644;48.914;2.254;2024-01-30T12:08:20;7.00;3.25;2.00
75960;PMS7003;64644;48.914;2.254;2024-01-30T12:10:45;6.25;6.25;4.75
75960;PMS7003;64644;48.914;2.254;2024-01-30T12:13:11;9.50;9.00;5.00
75960;PMS7003;64644;48.914;2.254;2024-01-30T12:15:36;4.00;3.25;3.00
75960;PMS7003;64644;48.914;2.254;2024-01-30T12:18:05;8.50;6.50;3.00
75960;PMS7003;64644;48.914;2.254;2024-01-30T12:20:31;6.00;4.25;2.50
75960;PMS7003;64644;48.914;2.254;2024-01-30T12:22:56;4.75;4.75;3.00
75960;PMS7003;64644;48.914;2.254;2024-01-30T12:25:22;3.00;2.75;2.00
75960;PMS7003;64644;48.914;2.254;2024-01-30T12:27:49;4.25;4.25;3.00
75960;PMS7003;64644;48.914;2.254;2024-01-30T12:30:15;5.00;5.00;3.00
75960;PMS7003;64644;48.914;2.254;2024-01-30T12:32:43;6.75;3.25;3.00
75960;PMS7003;64644;48.914;2.254;2024-01-30T12:35:13;2.75;2.00;1.75
75960;PMS7003;64644;48.914;2.254;2024-01-30T12:37:40;6.75;5.25;2.25
75960;PMS7003;64644;48.914;2.254;2024-01-30T12:40:07;6.00;4.25;3.00
75960;PMS7003;64644;48.914;2.254;2024-01-30T12:42:34;3.00;3.00;2.75
75960;PMS7003;64644;48.914;2.254;2024-01-30T12:44:59;2.25;2.00;2.00
75960;PMS7003;64644;48.914;2.254;2024-01-30T12:47:25;6.75;3.00;2.25
75960;PMS7003;64644;48.914;2.254;2024-01-30T12:49:50;2.00;2.00;1.25
75960;PMS7003;64644;48.914;2.254;2024-01-30T12:52:18;3.75;2.75;2.00
75960;PMS7003;64644;48.914;2.254;2024-01-30T12:54:44;2.00;2.00;1.75
75960;PMS7003;64644;48.914;2.254;2024-01-30T12:57:10;1.50;1.50;1.00
75960;PMS7003;64644;48.914;2.254;2024-01-30T12:59:35;4.75;4.75;2.00
75960;PMS7003;64644;48.914;2.254;2024-01-30T13:02:00;5.25;4.00;2.50
75960;PMS7003;64644;48.914;2.254;2024-01-30T13:04:28;2.50;2.50;2.00
75960;PMS7003;64644;48.914;2.254;2024-01-30T13:06:53;2.00;2.00;1.50
75960;PMS7003;64644;48.914;2.254;2024-01-30T13:09:19;0.50;0.50;0.50
75960;PMS7003;64644;48.914;2.254;2024-01-30T13:11:45;3.00;1.75;0.50
75960;PMS7003;64644;48.914;2.254;2024-01-30T13:14:10;2.00;1.00;1.00
75960;PMS7003;64644;48.914;2.254;2024-01-30T13:16:35;2.50;0.00;0.00
75960;PMS7003;64644;48.914;2.254;2024-01-30T13:19:01;1.50;0.00;0.00
75960;PMS7003;64644;48.914;2.254;2024-01-30T13:21:27;1.50;1.00;0.00
75960;PMS7003;64644;48.914;2.254;2024-01-30T13:23:52;0.00;0.00;0.00
75960;PMS7003;64644;48.914;2.254;2024-01-30T13:26:19;2.25;2.00;1.00
75960;PMS7003;64644;48.914;2.254;2024-01-30T13:28:45;4.50;2.00;0.00
75960;PMS7003;64644;48.914;2.254;2024-01-30T13:31:10;1.00;1.00;0.50
75960;PMS7003;64644;48.914;2.254;2024-01-30T13:33:35;2.00;0.50;0.00
75960;PMS7003;64644;48.914;2.254;2024-01-30T13:36:01;0.00;0.00;0.00
75960;PMS7003;64644;48.914;2.254;2024-01-30T13:38:26;0.00;0.00;0.00
75960;PMS7003;64644;48.914;2.254;2024-01-30T13:40:51;1.75;1.00;0.00
75960;PMS7003;64644;48.914;2.254;2024-01-30T13:43:17;1.00;1.00;0.50
75960;PMS7003;64644;48.914;2.254;2024-01-30T13:45:42;0.00;0.00;0.00
75960;PMS7003;64644;48.914;2.254;2024-01-30T13:48:08;2.50;2.50;0.50
75960;PMS7003;64644;48.914;2.254;2024-01-30T13:50:33;1.00;1.00;0.50
75960;PMS7003;64644;48.914;2.254;2024-01-30T13:52:59;1.50;1.25;1.00
75960;PMS7003;64644;48.914;2.254;2024-01-30T13:55:24;1.00;1.00;0.00
75960;PMS7003;64644;48.914;2.254;2024-01-30T13:57:50;1.25;1.25;1.00